Japan Airlines Virtual Airport Information Service

Miyazaki Airport

ICAO: RJFM Country: Japan
Latitude: 31.8772 Longitude: 131.449
Latest Arrival : SCC850 (RJKA-RJFM) Latest Departure : SCC691 (RJFM-RJOA)


WX CaptureLIVE
Data provided by noaa.gov | Fetched at 08:53:59

METAR : RJFM 090800Z 17011KT 9999 FEW010 SCT030 BKN100 25/23 Q1007

TAF : RJFM 090506Z 0906/1012 16006KT 7000 -SHRA FEW005 SCT010 BKN020 TEMPO 0906/0909 3000 TSRA BR FEW005 SCT010 BKN020 FEW025CB TEMPO 0909/0912 3000 SHRA BR TEMPO 0912/0921 4000 -SHRA BR TEMPO 1009/1012 4000 -SHRA BR


Runway Data for RJFM
Data provided by openaviationdata.com

Runway ID Mag Var Hdg Length Elevation Surface ILS Freq ILS Id ILS Slope
9 -6 91° 8194 ft 19 ft Asphalt -- -- --
27 -6 271° 8194 ft 19 ft Asphalt 108.9 IMZ 3

Miyazaki Airport, Japan
Use only for reference purposes



Not for navigational purposes.